Strona główna
METAR-TAF:

METAR-TAF

Lotnisko :

Community_Airport

Owosso, Michigan, Stany Zjednoczone

Szerokość geograficzna: 42-59-34N, Długość geograficzna: 084-08-20W, wysokość: 224 m

Aktualna obserwacja pogody

Raport powstał 22 minut temu, godzina 05:56 UTC
Wiatr 6 kt od północ w porywach dochodzący do 14 kt
Temperatura -1°C
Wilgotność 80%
Ciśnienie 1017 hPa
Widzialność: 4.8 km
Zachmurzenie całkowite na wysokości 1400 ft
słaby śnieg

METAR: KRNP 260556Z AUTO 01006G14KT 3SM -SN OVC014 M01/M04 A3004 RMK AO2 T10121039 11001 21012

czas: 01:18 (06:18 UTC)


TAF: brakujący

Obserwacja i prognoza pogody dla ponad 4000 lotnisk (raport METAR i TAF).

Dostępne stacje oznaczono żółtymi i czerwonymi punktami na mapie.

Najedź kursorem aby zobaczyć nazwę stacji.

Kliknij aby zobaczyć obserwacje i prognozy pogody.

Aby zmienić mapę: kliknij na zielony przycisk z czarnym krzyżykiem, aby powiększyć; na zielony przycisk z myślnikiem, aby pomniejszyć; na zielone strzałki, aby przejść do map sąsiednich.


METAR-TAF: